sensor_id;sensor_type;location;lat;lon;timestamp;pressure;altitude;pressure_sealevel;temperature;humidity
64753;BME280;61095;52.454;16.948;2022-08-19T02:04:29;99868.53;;;23.39;60.15
64753;BME280;61095;52.454;16.948;2022-08-19T02:09:28;99859.16;;;23.44;59.94
64753;BME280;61095;52.454;16.948;2022-08-19T02:14:26;99863.28;;;23.38;60.03
64753;BME280;61095;52.454;16.948;2022-08-19T02:19:25;99855.91;;;23.40;60.03
64753;BME280;61095;52.454;16.948;2022-08-19T02:24:25;99851.94;;;23.44;59.98
64753;BME280;61095;52.454;16.948;2022-08-19T02:29:23;99839.47;;;23.43;59.66
64753;BME280;61095;52.454;16.948;2022-08-19T02:34:22;99838.63;;;23.43;60.06
64753;BME280;61095;52.454;16.948;2022-08-19T02:39:22;99838.91;;;23.39;60.16
64753;BME280;61095;52.454;16.948;2022-08-19T02:44:21;99843.00;;;23.34;60.00
64753;BME280;61095;52.454;16.948;2022-08-19T02:49:20;99837.91;;;23.31;60.24
64753;BME280;61095;52.454;16.948;2022-08-19T02:54:18;99840.91;;;23.28;60.58
64753;BME280;61095;52.454;16.948;2022-08-19T02:59:17;99837.50;;;23.16;60.57
64753;BME280;61095;52.454;16.948;2022-08-19T03:04:17;99829.56;;;23.05;60.90
64753;BME280;61095;52.454;16.948;2022-08-19T03:09:17;99829.00;;;23.01;61.17
64753;BME280;61095;52.454;16.948;2022-08-19T03:14:16;99820.53;;;22.96;61.09
64753;BME280;61095;52.454;16.948;2022-08-19T03:19:18;99824.88;;;22.88;61.68
64753;BME280;61095;52.454;16.948;2022-08-19T03:24:18;99810.88;;;22.84;61.60
64753;BME280;61095;52.454;16.948;2022-08-19T03:29:18;99812.84;;;22.82;61.79
64753;BME280;61095;52.454;16.948;2022-08-19T03:34:22;99816.69;;;22.79;61.72
64753;BME280;61095;52.454;16.948;2022-08-19T03:39:24;99810.03;;;22.74;61.79
64753;BME280;61095;52.454;16.948;2022-08-19T03:44:23;99812.56;;;22.75;61.75
64753;BME280;61095;52.454;16.948;2022-08-19T03:49:25;99808.47;;;22.71;62.19
64753;BME280;61095;52.454;16.948;2022-08-19T03:54:25;99813.16;;;22.69;62.21
64753;BME280;61095;52.454;16.948;2022-08-19T03:59:28;99814.84;;;22.61;62.50
64753;BME280;61095;52.454;16.948;2022-08-19T04:04:28;99824.16;;;22.57;62.27
64753;BME280;61095;52.454;16.948;2022-08-19T04:09:27;99823.91;;;22.60;62.33
64753;BME280;61095;52.454;16.948;2022-08-19T04:14:28;99830.97;;;22.61;62.35
64753;BME280;61095;52.454;16.948;2022-08-19T04:19:30;99840.28;;;22.57;62.60
64753;BME280;61095;52.454;16.948;2022-08-19T04:24:29;99836.63;;;22.58;62.34
64753;BME280;61095;52.454;16.948;2022-08-19T04:29:28;99826.72;;;22.58;62.89
64753;BME280;61095;52.454;16.948;2022-08-19T04:34:27;99823.06;;;22.59;62.99
64753;BME280;61095;52.454;16.948;2022-08-19T04:39:29;99821.47;;;22.57;62.79
64753;BME280;61095;52.454;16.948;2022-08-19T04:44:42;99856.56;;;22.45;62.95
64753;BME280;61095;52.454;16.948;2022-08-19T04:49:40;99860.66;;;22.50;63.00
64753;BME280;61095;52.454;16.948;2022-08-19T04:54:40;99847.41;;;22.67;62.94
64753;BME280;61095;52.454;16.948;2022-08-19T04:59:39;99832.97;;;22.78;62.57
64753;BME280;61095;52.454;16.948;2022-08-19T05:04:37;99826.59;;;22.98;62.00
64753;BME280;61095;52.454;16.948;2022-08-19T05:09:37;99856.91;;;23.10;61.86
64753;BME280;61095;52.454;16.948;2022-08-19T05:14:37;99837.06;;;23.21;61.21
64753;BME280;61095;52.454;16.948;2022-08-19T05:19:35;99828.97;;;23.30;61.04
64753;BME280;61095;52.454;16.948;2022-08-19T05:25:10;99824.31;;;23.42;60.75
64753;BME280;61095;52.454;16.948;2022-08-19T05:30:11;99826.09;;;23.61;60.09
64753;BME280;61095;52.454;16.948;2022-08-19T05:35:12;99809.28;;;23.86;59.75
64753;BME280;61095;52.454;16.948;2022-08-19T05:40:13;99807.50;;;24.05;59.20
64753;BME280;61095;52.454;16.948;2022-08-19T05:45:13;99808.53;;;24.21;58.42
64753;BME280;61095;52.454;16.948;2022-08-19T05:50:12;99820.84;;;24.24;58.20
64753;BME280;61095;52.454;16.948;2022-08-19T05:55:11;99800.72;;;24.46;57.99
64753;BME280;61095;52.454;16.948;2022-08-19T06:00:12;99803.44;;;24.63;57.68
64753;BME280;61095;52.454;16.948;2022-08-19T06:05:12;99788.72;;;24.76;57.14
64753;BME280;61095;52.454;16.948;2022-08-19T06:10:12;99796.97;;;24.92;56.65
64753;BME280;61095;52.454;16.948;2022-08-19T06:15:13;99808.09;;;25.15;56.27
64753;BME280;61095;52.454;16.948;2022-08-19T06:20:14;99805.94;;;25.36;55.33
64753;BME280;61095;52.454;16.948;2022-08-19T06:25:15;99807.06;;;25.51;54.83
64753;BME280;61095;52.454;16.948;2022-08-19T06:30:15;99795.13;;;25.62;54.94
64753;BME280;61095;52.454;16.948;2022-08-19T06:35:15;99782.72;;;25.77;54.41
64753;BME280;61095;52.454;16.948;2022-08-19T06:40:14;99793.41;;;25.87;54.16
64753;BME280;61095;52.454;16.948;2022-08-19T06:45:12;99779.28;;;26.01;53.91
64753;BME280;61095;52.454;16.948;2022-08-19T06:50:11;99783.84;;;26.01;53.68
64753;BME280;61095;52.454;16.948;2022-08-19T06:55:11;99789.97;;;26.11;53.13
64753;BME280;61095;52.454;16.948;2022-08-19T07:00:10;99805.53;;;26.17;52.94
64753;BME280;61095;52.454;16.948;2022-08-19T07:05:10;99819.97;;;25.92;53.42
64753;BME280;61095;52.454;16.948;2022-08-19T07:10:09;99808.22;;;25.75;53.95
64753;BME280;61095;52.454;16.948;2022-08-19T07:15:10;99810.38;;;26.05;53.40
64753;BME280;61095;52.454;16.948;2022-08-19T07:20:10;99819.44;;;26.30;52.88
64753;BME280;61095;52.454;16.948;2022-08-19T07:25:09;99829.19;;;26.65;52.02
64753;BME280;61095;52.454;16.948;2022-08-19T07:30:10;99831.59;;;26.85;51.48
64753;BME280;61095;52.454;16.948;2022-08-19T07:35:09;99830.97;;;27.23;51.15
64753;BME280;61095;52.454;16.948;2022-08-19T07:40:08;99843.31;;;27.34;50.83
64753;BME280;61095;52.454;16.948;2022-08-19T07:45:07;99840.75;;;27.49;50.19
64753;BME280;61095;52.454;16.948;2022-08-19T07:50:09;99848.34;;;27.53;49.57
64753;BME280;61095;52.454;16.948;2022-08-19T07:55:10;99857.50;;;27.68;49.99
64753;BME280;61095;52.454;16.948;2022-08-19T08:00:09;99850.34;;;27.84;49.14
64753;BME280;61095;52.454;16.948;2022-08-19T08:05:09;99842.69;;;27.95;49.00
64753;BME280;61095;52.454;16.948;2022-08-19T08:10:25;99853.50;;;28.03;48.68
64753;BME280;61095;52.454;16.948;2022-08-19T08:15:25;99840.28;;;28.00;49.09
64753;BME280;61095;52.454;16.948;2022-08-19T08:20:25;99842.00;;;27.93;48.37
64753;BME280;61095;52.454;16.948;2022-08-19T08:25:23;99836.38;;;28.03;48.85
64753;BME280;61095;52.454;16.948;2022-08-19T08:30:24;99845.72;;;28.00;48.58
64753;BME280;61095;52.454;16.948;2022-08-19T08:35:25;99841.72;;;27.80;49.02
64753;BME280;61095;52.454;16.948;2022-08-19T08:40:28;99848.81;;;27.89;48.91
64753;BME280;61095;52.454;16.948;2022-08-19T08:45:28;99844.44;;;27.80;49.21
64753;BME280;61095;52.454;16.948;2022-08-19T08:50:35;99847.06;;;28.13;48.80
64753;BME280;61095;52.454;16.948;2022-08-19T08:55:37;99855.03;;;28.45;48.39
64753;BME280;61095;52.454;16.948;2022-08-19T09:00:40;99855.59;;;28.72;47.76
64753;BME280;61095;52.454;16.948;2022-08-19T09:05:48;99848.13;;;28.96;46.80
64753;BME280;61095;52.454;16.948;2022-08-19T09:10:53;99838.09;;;28.97;47.10
64753;BME280;61095;52.454;16.948;2022-08-19T09:15:57;99841.19;;;28.94;46.77
64753;BME280;61095;52.454;16.948;2022-08-19T09:21:00;99839.44;;;29.01;46.58
64753;BME280;61095;52.454;16.948;2022-08-19T09:25:59;99839.38;;;29.09;46.85
64753;BME280;61095;52.454;16.948;2022-08-19T09:30:58;99846.44;;;29.18;46.47
64753;BME280;61095;52.454;16.948;2022-08-19T09:36:09;99837.06;;;29.21;45.81
64753;BME280;61095;52.454;16.948;2022-08-19T09:41:12;99845.16;;;29.44;45.44
64753;BME280;61095;52.454;16.948;2022-08-19T09:46:11;99839.81;;;29.73;45.53
64753;BME280;61095;52.454;16.948;2022-08-19T09:51:12;99837.78;;;30.05;44.65
64753;BME280;61095;52.454;16.948;2022-08-19T09:56:13;99825.06;;;30.27;44.36
64753;BME280;61095;52.454;16.948;2022-08-19T10:01:17;99835.28;;;30.39;43.51
64753;BME280;61095;52.454;16.948;2022-08-19T10:06:18;99831.97;;;30.44;43.27
64753;BME280;61095;52.454;16.948;2022-08-19T10:11:18;99835.34;;;30.61;43.79
64753;BME280;61095;52.454;16.948;2022-08-19T10:16:18;99832.13;;;30.72;42.70
64753;BME280;61095;52.454;16.948;2022-08-19T10:21:23;99810.91;;;30.67;41.63
64753;BME280;61095;52.454;16.948;2022-08-19T10:26:26;99804.09;;;30.78;42.03
64753;BME280;61095;52.454;16.948;2022-08-19T10:31:28;99783.34;;;30.77;40.53
64753;BME280;61095;52.454;16.948;2022-08-19T10:36:31;99786.84;;;30.71;40.64
64753;BME280;61095;52.454;16.948;2022-08-19T10:41:32;99793.84;;;30.80;40.29
64753;BME280;61095;52.454;16.948;2022-08-19T10:46:32;99779.13;;;30.74;40.76
64753;BME280;61095;52.454;16.948;2022-08-19T10:51:33;99781.13;;;30.87;40.59
64753;BME280;61095;52.454;16.948;2022-08-19T10:56:49;99796.56;;;31.01;40.23
64753;BME280;61095;52.454;16.948;2022-08-19T11:01:50;99800.72;;;31.19;39.84
64753;BME280;61095;52.454;16.948;2022-08-19T11:06:51;99791.81;;;31.31;40.04
64753;BME280;61095;52.454;16.948;2022-08-19T11:11:49;99790.81;;;31.39;39.75
64753;BME280;61095;52.454;16.948;2022-08-19T11:16:48;99792.50;;;31.40;39.31
64753;BME280;61095;52.454;16.948;2022-08-19T11:21:48;99794.56;;;31.38;38.97
64753;BME280;61095;52.454;16.948;2022-08-19T11:26:50;99794.53;;;31.31;38.45
64753;BME280;61095;52.454;16.948;2022-08-19T11:31:54;99788.91;;;31.39;38.85
64753;BME280;61095;52.454;16.948;2022-08-19T11:36:56;99795.28;;;31.46;39.06
64753;BME280;61095;52.454;16.948;2022-08-19T11:41:58;99797.81;;;31.48;39.14
64753;BME280;61095;52.454;16.948;2022-08-19T11:46:57;99803.06;;;31.50;39.09
64753;BME280;61095;52.454;16.948;2022-08-19T11:51:57;99821.34;;;31.56;39.15
64753;BME280;61095;52.454;16.948;2022-08-19T11:56:57;99808.00;;;31.61;38.70
64753;BME280;61095;52.454;16.948;2022-08-19T12:01:55;99816.44;;;31.72;39.23
64753;BME280;61095;52.454;16.948;2022-08-19T12:06:54;99812.91;;;31.78;38.99
64753;BME280;61095;52.454;16.948;2022-08-19T12:11:53;99825.53;;;31.79;38.72
64753;BME280;61095;52.454;16.948;2022-08-19T12:16:54;99821.75;;;31.81;38.54
64753;BME280;61095;52.454;16.948;2022-08-19T12:21:52;99819.00;;;31.81;38.02
64753;BME280;61095;52.454;16.948;2022-08-19T12:26:52;99826.59;;;31.85;38.35
64753;BME280;61095;52.454;16.948;2022-08-19T12:31:54;99835.56;;;31.72;38.42
64753;BME280;61095;52.454;16.948;2022-08-19T12:37:00;99839.97;;;31.73;37.91
64753;BME280;61095;52.454;16.948;2022-08-19T12:41:59;99833.25;;;31.76;38.27
64753;BME280;61095;52.454;16.948;2022-08-19T12:46:59;99837.91;;;31.82;37.85
64753;BME280;61095;52.454;16.948;2022-08-19T12:52:00;99834.97;;;31.84;37.78
64753;BME280;61095;52.454;16.948;2022-08-19T12:56:59;99838.81;;;31.89;38.31
64753;BME280;61095;52.454;16.948;2022-08-19T13:02:00;99849.34;;;31.92;38.80
64753;BME280;61095;52.454;16.948;2022-08-19T13:06:58;99838.81;;;31.89;39.54
64753;BME280;61095;52.454;16.948;2022-08-19T13:11:57;99843.88;;;31.92;39.83
64753;BME280;61095;52.454;16.948;2022-08-19T13:17:01;99839.25;;;31.93;39.83
64753;BME280;61095;52.454;16.948;2022-08-19T13:22:06;99848.09;;;31.95;40.00
64753;BME280;61095;52.454;16.948;2022-08-19T13:27:05;99839.69;;;31.96;39.87
64753;BME280;61095;52.454;16.948;2022-08-19T13:32:06;99835.69;;;31.92;39.77
64753;BME280;61095;52.454;16.948;2022-08-19T13:37:22;99840.50;;;31.90;39.64
64753;BME280;61095;52.454;16.948;2022-08-19T13:42:35;99847.59;;;31.85;40.10
64753;BME280;61095;52.454;16.948;2022-08-19T13:47:36;99850.72;;;31.82;40.05
64753;BME280;61095;52.454;16.948;2022-08-19T13:52:40;99843.38;;;31.82;39.79
64753;BME280;61095;52.454;16.948;2022-08-19T13:57:41;99848.78;;;31.75;40.15
64753;BME280;61095;52.454;16.948;2022-08-19T14:02:41;99852.97;;;31.71;39.77
64753;BME280;61095;52.454;16.948;2022-08-19T14:07:40;99853.75;;;31.65;40.33
64753;BME280;61095;52.454;16.948;2022-08-19T14:12:39;99853.31;;;31.62;40.12
64753;BME280;61095;52.454;16.948;2022-08-19T14:17:38;99854.16;;;31.62;40.12
64753;BME280;61095;52.454;16.948;2022-08-19T14:22:40;99854.38;;;31.61;40.46
64753;BME280;61095;52.454;16.948;2022-08-19T14:27:40;99857.41;;;31.51;40.39
64753;BME280;61095;52.454;16.948;2022-08-19T14:32:39;99856.13;;;31.47;40.16
64753;BME280;61095;52.454;16.948;2022-08-19T14:37:42;99864.44;;;31.39;40.57
64753;BME280;61095;52.454;16.948;2022-08-19T14:42:42;99873.41;;;31.33;40.72
64753;BME280;61095;52.454;16.948;2022-08-19T14:47:41;99877.75;;;31.27;40.52
64753;BME280;61095;52.454;16.948;2022-08-19T14:52:39;99872.19;;;31.14;41.12
64753;BME280;61095;52.454;16.948;2022-08-19T14:57:40;99875.41;;;31.03;41.70
64753;BME280;61095;52.454;16.948;2022-08-19T15:02:39;99864.44;;;30.96;41.43
64753;BME280;61095;52.454;16.948;2022-08-19T15:07:38;99867.94;;;30.90;41.71
64753;BME280;61095;52.454;16.948;2022-08-19T15:12:38;99873.44;;;30.75;41.84
64753;BME280;61095;52.454;16.948;2022-08-19T15:17:38;99872.25;;;30.63;41.96
64753;BME280;61095;52.454;16.948;2022-08-19T15:22:38;99865.06;;;30.56;42.19
64753;BME280;61095;52.454;16.948;2022-08-19T15:27:37;99866.63;;;30.50;42.33
64753;BME280;61095;52.454;16.948;2022-08-19T15:32:38;99862.13;;;30.42;42.36
64753;BME280;61095;52.454;16.948;2022-08-19T15:37:37;99860.72;;;30.32;42.61
64753;BME280;61095;52.454;16.948;2022-08-19T15:42:36;99854.19;;;30.26;42.65
64753;BME280;61095;52.454;16.948;2022-08-19T15:47:35;99860.09;;;30.15;42.46
64753;BME280;61095;52.454;16.948;2022-08-19T15:52:36;99860.78;;;30.02;42.56
64753;BME280;61095;52.454;16.948;2022-08-19T15:57:34;99858.75;;;29.96;43.13
64753;BME280;61095;52.454;16.948;2022-08-19T16:02:47;99853.41;;;29.88;43.01
64753;BME280;61095;52.454;16.948;2022-08-19T16:08:04;99858.09;;;29.79;43.28
64753;BME280;61095;52.454;16.948;2022-08-19T16:13:05;99858.00;;;29.73;43.33
64753;BME280;61095;52.454;16.948;2022-08-19T16:18:07;99865.59;;;29.63;43.62
64753;BME280;61095;52.454;16.948;2022-08-19T16:23:06;99865.50;;;29.56;44.01
64753;BME280;61095;52.454;16.948;2022-08-19T16:28:05;99871.00;;;29.48;43.91
64753;BME280;61095;52.454;16.948;2022-08-19T16:33:06;99868.13;;;29.41;43.92
64753;BME280;61095;52.454;16.948;2022-08-19T16:38:06;99880.59;;;29.36;44.35
64753;BME280;61095;52.454;16.948;2022-08-19T16:43:05;99880.66;;;29.27;44.20
64753;BME280;61095;52.454;16.948;2022-08-19T16:48:05;99889.06;;;29.18;44.77
64753;BME280;61095;52.454;16.948;2022-08-19T16:53:06;99900.59;;;29.20;45.22
64753;BME280;61095;52.454;16.948;2022-08-19T16:58:05;99901.81;;;29.17;45.06
64753;BME280;61095;52.454;16.948;2022-08-19T17:03:04;99913.41;;;29.11;45.41
64753;BME280;61095;52.454;16.948;2022-08-19T17:08:03;99910.06;;;29.01;45.75
64753;BME280;61095;52.454;16.948;2022-08-19T17:13:04;99916.88;;;28.97;45.83
64753;BME280;61095;52.454;16.948;2022-08-19T17:18:04;99921.34;;;28.90;45.92
64753;BME280;61095;52.454;16.948;2022-08-19T17:23:03;99919.69;;;28.81;46.05
64753;BME280;61095;52.454;16.948;2022-08-19T17:28:07;99921.78;;;28.71;46.09
64753;BME280;61095;52.454;16.948;2022-08-19T17:33:07;99940.47;;;28.65;46.31
64753;BME280;61095;52.454;16.948;2022-08-19T17:38:06;99944.09;;;28.58;46.30
64753;BME280;61095;52.454;16.948;2022-08-19T17:43:07;99940.00;;;28.54;46.28
64753;BME280;61095;52.454;16.948;2022-08-19T17:48:06;99931.91;;;28.46;46.78
64753;BME280;61095;52.454;16.948;2022-08-19T17:53:05;99942.13;;;28.35;47.02
64753;BME280;61095;52.454;16.948;2022-08-19T17:58:03;99945.00;;;28.26;47.20
64753;BME280;61095;52.454;16.948;2022-08-19T18:03:04;99955.88;;;28.18;47.68
64753;BME280;61095;52.454;16.948;2022-08-19T18:08:03;99957.59;;;28.02;47.78
64753;BME280;61095;52.454;16.948;2022-08-19T18:13:06;99965.41;;;27.97;47.79
64753;BME280;61095;52.454;16.948;2022-08-19T18:18:07;99966.44;;;27.88;48.22
64753;BME280;61095;52.454;16.948;2022-08-19T18:23:07;99976.47;;;27.80;48.21
64753;BME280;61095;52.454;16.948;2022-08-19T18:28:05;99984.75;;;27.78;48.36
64753;BME280;61095;52.454;16.948;2022-08-19T18:33:07;99975.94;;;27.68;48.70
64753;BME280;61095;52.454;16.948;2022-08-19T18:38:12;99969.47;;;27.61;48.80
64753;BME280;61095;52.454;16.948;2022-08-19T18:43:28;99963.88;;;27.54;48.85
64753;BME280;61095;52.454;16.948;2022-08-19T18:48:46;99974.03;;;27.44;49.44
64753;BME280;61095;52.454;16.948;2022-08-19T18:54:03;99978.97;;;27.40;49.26
64753;BME280;61095;52.454;16.948;2022-08-19T18:59:02;99979.13;;;27.31;49.70
64753;BME280;61095;52.454;16.948;2022-08-19T19:04:06;99974.72;;;27.22;50.25
64753;BME280;61095;52.454;16.948;2022-08-19T19:09:07;99968.44;;;27.21;50.08
64753;BME280;61095;52.454;16.948;2022-08-19T19:14:07;99983.66;;;27.14;50.27
64753;BME280;61095;52.454;16.948;2022-08-19T19:19:09;99982.41;;;27.08;50.46
64753;BME280;61095;52.454;16.948;2022-08-19T19:24:09;99990.19;;;27.03;50.47
64753;BME280;61095;52.454;16.948;2022-08-19T19:29:09;99980.03;;;26.97;50.84
64753;BME280;61095;52.454;16.948;2022-08-19T19:34:14;99983.06;;;26.94;51.35
64753;BME280;61095;52.454;16.948;2022-08-19T19:39:13;99994.38;;;26.90;51.02
64753;BME280;61095;52.454;16.948;2022-08-19T19:44:12;100008.44;;;26.93;51.51
64753;BME280;61095;52.454;16.948;2022-08-19T19:49:13;100010.81;;;26.96;51.72
64753;BME280;61095;52.454;16.948;2022-08-19T19:54:12;100002.19;;;27.01;51.66
64753;BME280;61095;52.454;16.948;2022-08-19T19:59:12;100010.66;;;26.98;51.63
64753;BME280;61095;52.454;16.948;2022-08-19T20:04:12;100012.69;;;26.96;52.11
64753;BME280;61095;52.454;16.948;2022-08-19T20:09:10;100015.22;;;26.97;52.20
64753;BME280;61095;52.454;16.948;2022-08-19T20:14:11;100024.88;;;26.92;52.68
64753;BME280;61095;52.454;16.948;2022-08-19T20:19:14;100035.34;;;26.87;52.68
64753;BME280;61095;52.454;16.948;2022-08-19T20:24:14;100045.69;;;26.91;52.52
64753;BME280;61095;52.454;16.948;2022-08-19T20:29:15;100044.16;;;26.89;52.67
64753;BME280;61095;52.454;16.948;2022-08-19T20:34:16;100047.19;;;26.86;52.60
64753;BME280;61095;52.454;16.948;2022-08-19T20:39:14;100049.53;;;26.80;52.71
64753;BME280;61095;52.454;16.948;2022-08-19T20:44:13;100051.88;;;26.75;52.90
64753;BME280;61095;52.454;16.948;2022-08-19T20:49:11;100049.16;;;26.75;52.67
64753;BME280;61095;52.454;16.948;2022-08-19T20:54:11;100064.66;;;26.65;53.30
64753;BME280;61095;52.454;16.948;2022-08-19T20:59:10;100061.59;;;26.60;53.29
64753;BME280;61095;52.454;16.948;2022-08-19T21:04:09;100048.69;;;26.54;53.37
64753;BME280;61095;52.454;16.948;2022-08-19T21:09:07;100033.31;;;26.55;53.40
64753;BME280;61095;52.454;16.948;2022-08-19T21:14:07;100043.75;;;26.49;54.02
64753;BME280;61095;52.454;16.948;2022-08-19T21:19:05;100034.78;;;26.49;53.96
64753;BME280;61095;52.454;16.948;2022-08-19T21:24:04;100034.78;;;26.49;54.17
64753;BME280;61095;52.454;16.948;2022-08-19T21:29:03;100039.34;;;26.48;54.06
64753;BME280;61095;52.454;16.948;2022-08-19T21:34:03;100056.69;;;26.38;54.88
64753;BME280;61095;52.454;16.948;2022-08-19T21:39:02;100076.91;;;26.26;54.97
64753;BME280;61095;52.454;16.948;2022-08-19T21:44:01;100090.66;;;26.14;55.62
64753;BME280;61095;52.454;16.948;2022-08-19T21:49:00;100096.66;;;26.00;56.19
64753;BME280;61095;52.454;16.948;2022-08-19T21:54:00;100089.38;;;25.83;57.33
64753;BME280;61095;52.454;16.948;2022-08-19T21:58:58;100068.38;;;25.77;57.47
64753;BME280;61095;52.454;16.948;2022-08-19T22:03:57;100051.91;;;25.70;58.30
64753;BME280;61095;52.454;16.948;2022-08-19T22:08:55;100036.47;;;25.63;58.54
64753;BME280;61095;52.454;16.948;2022-08-19T22:13:55;100027.28;;;25.55;59.13
64753;BME280;61095;52.454;16.948;2022-08-19T22:18:53;100039.72;;;25.48;58.68
64753;BME280;61095;52.454;16.948;2022-08-19T22:23:52;100021.56;;;25.41;59.44
64753;BME280;61095;52.454;16.948;2022-08-19T22:28:51;100004.75;;;25.29;59.74
64753;BME280;61095;52.454;16.948;2022-08-19T22:33:51;99999.50;;;25.18;60.16
64753;BME280;61095;52.454;16.948;2022-08-19T22:38:49;100004.22;;;25.16;59.89
64753;BME280;61095;52.454;16.948;2022-08-19T22:43:50;100016.78;;;25.07;60.31
64753;BME280;61095;52.454;16.948;2022-08-19T22:48:48;100020.63;;;25.05;59.97
64753;BME280;61095;52.454;16.948;2022-08-19T22:53:48;100026.81;;;24.97;60.56
64753;BME280;61095;52.454;16.948;2022-08-19T22:58:47;100035.19;;;24.94;60.60
64753;BME280;61095;52.454;16.948;2022-08-19T23:03:46;100033.25;;;24.86;61.03
64753;BME280;61095;52.454;16.948;2022-08-19T23:08:45;100036.09;;;24.85;60.90
64753;BME280;61095;52.454;16.948;2022-08-19T23:13:45;100037.69;;;24.78;61.48
64753;BME280;61095;52.454;16.948;2022-08-19T23:18:43;100042.53;;;24.74;61.29
64753;BME280;61095;52.454;16.948;2022-08-19T23:23:42;100058.00;;;24.72;61.48
64753;BME280;61095;52.454;16.948;2022-08-19T23:28:41;100062.00;;;24.68;61.76
64753;BME280;61095;52.454;16.948;2022-08-19T23:33:58;100063.31;;;24.64;62.02
64753;BME280;61095;52.454;16.948;2022-08-19T23:38:57;100050.94;;;24.61;61.92
64753;BME280;61095;52.454;16.948;2022-08-19T23:43:55;100036.75;;;24.59;62.12
64753;BME280;61095;52.454;16.948;2022-08-19T23:48:55;100051.22;;;24.58;62.01
64753;BME280;61095;52.454;16.948;2022-08-19T23:53:55;100038.34;;;24.52;62.51
64753;BME280;61095;52.454;16.948;2022-08-19T23:58:54;100044.88;;;24.50;62.46
